Flight Track Log - Related Links

Times and Time Zones

All times are in EST time to prevent confusion due to time zone crossing. See the N137TK flight status page for this flight to view local times or setup timezone preferences in your user account.

Time Position Orientation Groundspeed Altitude Reporting Facility
EST Latitude Longitude Course Direction KTS MPH feet Rate Location/Type
Thu 07:06:51 AM 29.6375 -95.6589 226° Southwest 198 228 800  Level Houston Center
Thu 07:08:16 AM 29.6261 -95.6722 226° Southwest 145 167 4,000 2,143 Climbing Houston Center
Thu 07:09:11 AM 29.6300 -95.6333 83° East 156 180 5,800 2,262 Climbing Houston Center
Thu 07:09:17 AM 29.6303 -95.6239 88° East 156 180 6,300 2,557 Climbing Houston Center
Thu 07:10:12 AM 29.6342 -95.5753 85° East 165 190 8,400 2,243 Climbing Houston Center
Thu 07:11:12 AM 29.6375 -95.5172 86° East 184 212 10,600 1,934 Climbing Houston Center
Thu 07:12:13 AM 29.6422 -95.4664 84° East 183 211 12,300 1,537 Climbing Houston Center
Thu 07:13:13 AM 29.6472 -95.3989 85° East 206 237 13,700 1,587 Climbing Houston Center
Thu 07:14:14 AM 29.6531 -95.3228 85° East 233 268 15,500 1,736 Climbing Houston Center
Thu 07:15:14 AM 29.6589 -95.2447 85° East 241 277 17,200 1,587 Climbing Houston Center
Thu 07:16:15 AM 29.6658 -95.1583 85° East 252 290 18,700 1,537 Climbing Houston Center
Thu 07:17:15 AM 29.6706 -95.0775 86° East 255 293 20,300 1,339 Climbing Houston Center
Thu 07:18:16 AM 29.6767 -94.9922 85° East 259 298 21,400 1,279 Climbing Houston Center
Thu 07:19:17 AM 29.6828 -94.9050 85° East 268 308 22,900 1,240 Climbing Houston Center
Thu 07:20:17 AM 29.6889 -94.8211 85° East 266 306 23,900 1,091 Climbing Houston Center
Thu 07:21:18 AM 29.6944 -94.7361 86° East 267 307 25,100 1,131 Climbing Houston Center
Thu 07:22:19 AM 29.7003 -94.6517 85° East 266 306 26,200 942 Climbing Houston Center
Thu 07:23:19 AM 29.7069 -94.5661 85° East 267 307 27,000 397 Climbing Houston Center
Thu 07:24:20 AM 29.7133 -94.4703 86° East 294 338 27,000  Level Houston Center
Thu 07:25:20 AM 29.7189 -94.3647 87° East 324 373 27,000  Level Houston Center
Thu 07:26:21 AM 29.6989 -94.2561 102° East 340 391 27,000  Level Houston Center
Thu 07:27:22 AM 29.6758 -94.1281 102° East 349 402 27,000  Level Houston Center
Thu 07:28:22 AM 29.6547 -94.0181 102° East 352 405 27,000  Level Houston Center
Thu 07:29:23 AM 29.6344 -93.9100 102° East 349 402 27,000  Level Houston Center
Thu 07:30:24 AM 29.6136 -93.8003 102° East 352 405 27,000  Level Houston Center
Thu 07:31:24 AM 29.5919 -93.6911 103° East 352 405 27,000  Level Houston Center
Thu 07:32:25 AM 29.5722 -93.5825 102° East 351 404 27,000  Level Houston Center
Thu 07:33:26 AM 29.5517 -93.4739 102° East 351 404 27,000  Level Houston Center
Thu 07:34:27 AM 29.5300 -93.3633 103° East 354 407 27,000  Level Houston Center
Thu 07:35:27 AM 29.5089 -93.2544 103° East 352 405 27,000  Level Houston Center
Thu 07:36:28 AM 29.4881 -93.1450 102° East 352 405 27,000  Level Houston Center
Thu 07:37:29 AM 29.4664 -93.0353 103° East 353 406 27,000  Level Houston Center
Thu 07:38:30 AM 29.4408 -92.9039 103° East 353 406 27,000  Level Houston Center
Thu 07:39:30 AM 29.4183 -92.7958 103° East 351 404 27,000  Level Houston Center
Thu 07:40:31 AM 29.3975 -92.6869 102° East 352 405 27,000  Level Houston Center
Thu 07:41:32 AM 29.3750 -92.5781 103° East 353 406 27,000  Level Houston Center
Thu 07:42:33 AM 29.3539 -92.4686 102° East 352 405 27,000  Level Houston Center
Thu 07:43:34 AM 29.3317 -92.3603 103° East 351 404 27,000  Level Houston Center
Thu 07:44:34 AM 29.3092 -92.2511 103° East 353 406 27,000  Level Houston Center
Thu 07:45:35 AM 29.2883 -92.1419 102° East 352 405 27,000  Level Houston Center
Thu 07:46:36 AM 29.2653 -92.0331 104° East 352 405 27,000  Level Houston Center
Thu 07:47:37 AM 29.2422 -91.9242 104° East 352 405 27,000  Level Houston Center
Thu 07:48:38 AM 29.2208 -91.8153 103° East 351 404 27,000  Level Houston Center
Thu 07:49:39 AM 29.1975 -91.7044 104° East 354 407 27,000  Level Houston Center
Thu 07:50:40 AM 29.1756 -91.5958 103° East 353 406 27,000  Level Houston Center
Thu 07:51:41 AM 29.1525 -91.4864 104° East 354 407 27,000  Level Houston Center
Thu 07:52:42 AM 29.1247 -91.3564 104° East 351 404 27,000  Level Houston Center
Thu 07:53:43 AM 29.1022 -91.2475 103° East 353 406 27,000  Level Houston Center
Thu 07:54:43 AM 29.0783 -91.1397 104° East 353 406 27,000  Level Houston Center
Thu 07:55:44 AM 29.0564 -91.0300 103° East 353 406 27,000  Level Houston Center
Thu 07:56:46 AM 29.0333 -90.9203 103° East 356 410 27,000  Level Houston Center
Thu 07:57:46 AM 29.0094 -90.8117 104° East 355 409 27,000  Level Houston Center
Thu 07:58:47 AM 28.9861 -90.7011 104° East 357 411 27,000  Level Houston Center
Thu 07:59:49 AM 28.9631 -90.5936 104° East 354 407 27,000  Level Houston Center
Thu 08:00:50 AM 28.9389 -90.4847 104° East 354 407 27,000  Level Houston Center
Thu 08:01:51 AM 28.9158 -90.3764 104° East 353 406 27,000  Level Houston Center
Thu 08:02:52 AM 28.8925 -90.2686 104° East 352 405 27,000  Level Houston Center
Thu 08:03:53 AM 28.8631 -90.1386 104° East 354 407 27,000  Level Houston Center
Thu 08:04:54 AM 28.8389 -90.0319 104° East 352 405 27,000  Level Houston Center
Thu 08:05:55 AM 28.8089 -89.9283 108° East 348 400 27,000  Level Houston Center
Thu 08:06:56 AM 28.7783 -89.8236 108° East 349 402 27,000  Level Houston Center
Thu 08:07:57 AM 28.7478 -89.7178 108° East 350 403 27,000  Level Houston Center
Thu 08:08:58 AM 28.7183 -89.6150 108° East 347 399 27,000  Level Houston Center
Thu 08:10:00 AM 28.6881 -89.5114 108° East 345 397 27,000  Level Houston Center
Thu 08:11:01 AM 28.6569 -89.4081 109° East 346 398 27,000  Level Houston Center
Thu 08:12:02 AM 28.6272 -89.3047 108° East 345 397 27,000  Level Houston Center
Thu 08:13:03 AM 28.5908 -89.1806 108° East 346 398 27,000  Level Houston Center
Thu 08:14:04 AM 28.5606 -89.0772 108° East 345 397 27,000  Level Houston Center
Thu 08:15:05 AM 28.5300 -88.9744 109° East 344 396 27,000  Level Houston Center
Thu 08:16:07 AM 28.4983 -88.8714 109° East 346 398 27,000  Level Houston Center
Thu 08:17:08 AM 28.4686 -88.7703 108° East 340 391 27,000  Level Houston Center
Thu 08:18:09 AM 28.4381 -88.6661 108° East 346 398 27,000  Level Houston Center
Thu 08:19:11 AM 28.4067 -88.5639 109° East 346 398 27,000  Level Houston Center
Thu 08:20:12 AM 28.3767 -88.4614 108° East 343 395 27,000  Level Houston Center
Thu 08:21:13 AM 28.3453 -88.3586 109° East 345 397 27,000  Level Houston Center
Thu 08:22:15 AM 28.3072 -88.2364 109° East 345 397 27,000  Level Houston Center
Thu 08:23:16 AM 28.2764 -88.1325 109° East 347 399 27,000  Level Houston Center
Thu 08:24:18 AM 28.2467 -88.0358 109° East 347 399 27,000  Level Houston Center
Thu 08:25:19 AM 28.2156 -87.9342 109° East 344 396 27,000  Level Houston Center
Thu 08:26:21 AM 28.1839 -87.8314 109° East 345 397 27,000  Level Houston Center
Thu 08:27:22 AM 28.1531 -87.7297 109° East 343 395 27,000  Level Houston Center
Thu 08:28:24 AM 28.1156 -87.6067 109° East 344 396 27,000  Level Houston Center
Thu 08:29:25 AM 28.0833 -87.5047 110° East 346 398 27,000  Level Houston Center
Thu 08:30:27 AM 28.0525 -87.4047 109° East 339 390 27,000  Level Houston Center
Thu 08:31:28 AM 28.0200 -87.3022 110° East 344 396 27,000  Level Houston Center
Thu 08:32:29 AM 27.9900 -87.2072 110° East 348 400 27,000  Level Jacksonville Center
Thu 08:33:29 AM 27.9561 -87.1000 110° East 348 400 27,000  Level Jacksonville Center
Thu 08:34:29 AM 27.9383 -86.9983 101° East 348 400 27,000  Level Jacksonville Center
Thu 08:35:29 AM 27.9253 -86.8850 97° East 343 395 27,000  Level Jacksonville Center
Thu 08:36:29 AM 27.9139 -86.7792 97° East 338 389 27,000  Level Jacksonville Center
Thu 08:37:29 AM 27.9067 -86.6756 94° East 347 399 27,000  Level Jacksonville Center
Thu 08:38:29 AM 27.8950 -86.5717 97° East 334 384 27,000  Level Jacksonville Center
Thu 08:39:29 AM 27.8794 -86.4539 98° East 346 398 27,000  Level Jacksonville Center
Thu 08:40:29 AM 27.8681 -86.3383 96° East 359 413 27,000  Level Jacksonville Center
Thu 08:41:29 AM 27.8561 -86.2372 98° East 348 400 27,000  Level Jacksonville Center
Thu 08:42:29 AM 27.8444 -86.1242 97° East 348 400 27,000  Level Jacksonville Center
Thu 08:43:29 AM 27.8325 -86.0181 97° East 354 407 27,000  Level Jacksonville Center
Thu 08:44:29 AM 27.8206 -85.9097 97° East 347 399 27,000  Level Jacksonville Center
Thu 08:45:29 AM 27.8083 -85.8039 97° East 347 399 27,000  Level Jacksonville Center
Thu 08:47:48 AM 27.7622 -85.5511 102° East 350 403 27,000  Level Miami Center
Thu 08:48:48 AM 27.7267 -85.4503 112° Southeast 350 403 27,000  Level Miami Center
Thu 08:49:48 AM 27.6931 -85.3492 111° Southeast 345 397 27,000  Level Miami Center
Thu 08:50:48 AM 27.6594 -85.2483 111° Southeast 345 397 27,000  Level Miami Center
Thu 08:51:48 AM 27.6211 -85.1519 114° Southeast 339 390 27,000  Level Miami Center
Thu 08:52:47 AM 27.5917 -85.0517 108° East 339 390 27,000  Level Miami Center
Thu 08:53:48 AM 27.5597 -84.9511 110° East 339 390 27,000  Level Miami Center
Thu 08:54:48 AM 27.5194 -84.8503 114° Southeast 339 390 27,000  Level Miami Center
Thu 08:55:47 AM 27.4894 -84.7522 109° East 339 390 27,000  Level Miami Center
Thu 08:56:48 AM 27.4575 -84.6519 110° East 339 390 27,000  Level Miami Center
Thu 08:57:48 AM 27.4169 -84.5511 114° Southeast 339 390 27,000  Level Miami Center
Thu 08:58:48 AM 27.3828 -84.4508 111° Southeast 339 390 27,000  Level Miami Center
Thu 08:59:48 AM 27.3461 -84.3503 112° Southeast 339 390 27,000  Level Miami Center
Thu 09:00:48 AM 27.3117 -84.2522 112° Southeast 339 390 27,000  Level Miami Center
Thu 09:01:48 AM 27.2811 -84.1547 109° East 339 390 27,000  Level Miami Center
Thu 09:02:48 AM 27.2464 -84.0567 112° Southeast 339 390 27,000  Level Miami Center
Thu 09:03:47 AM 27.2078 -83.9564 113° Southeast 339 390 27,000 -200 Level Miami Center
Thu 09:04:48 AM 27.1750 -83.8589 111° Southeast 339 390 26,600 -700 Descending Miami Center
Thu 09:05:47 AM 27.1361 -83.7539 113° Southeast 345 397 25,600 -1,000 Descending Miami Center
Thu 09:06:48 AM 27.1014 -83.6492 110° East 356 410 24,600 -1,000 Descending Miami Center
Thu 09:07:47 AM 27.0644 -83.5469 112° Southeast 356 410 23,600 -1,008 Descending Miami Center
Thu 09:08:47 AM 27.0256 -83.4422 113° Southeast 362 417 22,600 -1,041 Descending Miami Center
Thu 09:09:48 AM 26.9864 -83.3397 113° Southeast 362 417 21,500 -1,091 Descending Miami Center
Thu 09:10:48 AM 26.9531 -83.2403 111° Southeast 356 410 20,400 -1,109 Descending Miami Center
Thu 09:11:47 AM 26.9136 -83.1403 114° Southeast 356 410 19,300 -1,050 Descending Miami Center
Thu 09:12:48 AM 26.8806 -83.0408 110° East 349 402 18,300 -793 Descending Miami Center
Thu 09:13:48 AM 26.8450 -82.9436 112° Southeast 344 396 17,700 -800 Descending Miami Center
Thu 09:14:48 AM 26.8114 -82.8489 112° Southeast 334 384 16,700 -1,000 Descending Miami Center
Thu 09:15:48 AM 26.7756 -82.7564 113° Southeast 329 379 15,700 -1,000 Descending Miami Center
Thu 09:16:48 AM 26.7436 -82.6664 112° Southeast 318 366 14,700 -1,000 Descending Miami Center
Thu 09:17:48 AM 26.7117 -82.5764 112° Southeast 318 366 13,700 -1,050 Descending Miami Center
Thu 09:18:48 AM 26.6775 -82.4867 113° Southeast 313 360 12,600 -1,250 Descending Miami Center
Thu 09:19:48 AM 26.6417 -82.3897 112° Southeast 313 360 11,200 -1,200 Descending Miami Center
Thu 09:20:48 AM 26.5900 -82.3244 132° Southeast 292 336 10,200 -1,000 Descending Miami Center
Thu 09:21:48 AM 26.5272 -82.2706 142° Southeast 285 328 9,200 -1,000 Descending Miami Center
Thu 09:22:48 AM 26.4664 -82.2214 144° Southeast 280 322 8,200 -1,000 Descending Miami Center
Thu 09:23:48 AM 26.4033 -82.1722 145° Southeast 275 316 7,200 -1,000 Descending Miami Center
Thu 09:24:48 AM 26.3447 -82.1256 144° Southeast 275 316 6,200 -950 Descending Miami Center
Thu 09:25:48 AM 26.2925 -82.0653 134° Southeast 270 311 5,300 -950 Descending Miami Center
Thu 09:26:48 AM 26.2467 -82.0056 131° Southeast 260 299 4,300 -1,000 Descending Miami Center
Thu 09:27:48 AM 26.2047 -81.9528 132° Southeast 248 285 3,300 -1,000 Descending Miami Center
Thu 09:29:00 AM 26.1719 -81.8414 130° Southeast  Level Estimated
Thu 09:36:00 AM 26.1524 -81.7756 130° Southeast  Level Estimated
Thu 09:37:00 AM 26.1524 -81.7756 130° Southeast  Level Estimated
Thu 09:38:00 AM 26.1524 -81.7756 130° Southeast  Level Estimated
Thu 09:39:00 AM 26.1524 -81.7756 130° Southeast  Level Estimated
Thu 09:40:00 AM 26.1524 -81.7756 130° Southeast  Level Estimated

Login

Don't have an account? Register now (free) for customized features, flight alerts, and more!